Terminal Aerodrome Forecast
Issued by NWS

Home | Current Version | Previous Version | Text Only | Print | Product List | Glossary On
Versions: 1 2 3 4 5 6 7 8 9 10 11 12 13 14
000
FTUS41 KPBZ 302338
TAFFKL
TAF
KFKL 302338Z 0100/0124 12010KT P6SM VCSH BKN015
     FM011100 13006KT P6SM BKN010
     FM011700 14006KT P6SM BKN015
      AMD LTD TO VIS AND WIND=

USA.gov is the U.S. government's official web portal to all federal, state and local government web resources and services.